sensor_id;sensor_type;location;lat;lon;timestamp;P1;durP1;ratioP1;P2;durP2;ratioP2
76433;SDS011;65265;53.200;6.080;2023-06-22T00:00:13;17.98;;;13.32;;
76433;SDS011;65265;53.200;6.080;2023-06-22T00:05:05;19.20;;;12.80;;
76433;SDS011;65265;53.200;6.080;2023-06-22T00:09:57;17.80;;;14.30;;
76433;SDS011;65265;53.200;6.080;2023-06-22T00:14:50;21.02;;;16.27;;
76433;SDS011;65265;53.200;6.080;2023-06-22T00:19:41;18.05;;;11.80;;
76433;SDS011;65265;53.200;6.080;2023-06-22T00:24:32;19.52;;;14.85;;
76433;SDS011;65265;53.200;6.080;2023-06-22T00:29:24;20.98;;;15.35;;
76433;SDS011;65265;53.200;6.080;2023-06-22T00:34:17;20.02;;;14.77;;
76433;SDS011;65265;53.200;6.080;2023-06-22T00:39:08;22.58;;;16.60;;
76433;SDS011;65265;53.200;6.080;2023-06-22T00:44:00;23.50;;;15.77;;
76433;SDS011;65265;53.200;6.080;2023-06-22T00:48:51;21.85;;;17.17;;
76433;SDS011;65265;53.200;6.080;2023-06-22T00:53:48;20.65;;;15.02;;
76433;SDS011;65265;53.200;6.080;2023-06-22T00:58:41;22.02;;;17.10;;
76433;SDS011;65265;53.200;6.080;2023-06-22T01:03:33;21.67;;;15.43;;
76433;SDS011;65265;53.200;6.080;2023-06-22T01:08:27;17.58;;;13.93;;
76433;SDS011;65265;53.200;6.080;2023-06-22T01:13:25;19.00;;;14.18;;
76433;SDS011;65265;53.200;6.080;2023-06-22T01:18:22;19.40;;;15.88;;
76433;SDS011;65265;53.200;6.080;2023-06-22T01:23:18;21.73;;;15.90;;
76433;SDS011;65265;53.200;6.080;2023-06-22T01:28:22;19.20;;;14.00;;
76433;SDS011;65265;53.200;6.080;2023-06-22T01:33:25;18.52;;;15.00;;
76433;SDS011;65265;53.200;6.080;2023-06-22T01:38:17;22.55;;;16.27;;
76433;SDS011;65265;53.200;6.080;2023-06-22T01:43:09;15.40;;;13.18;;
76433;SDS011;65265;53.200;6.080;2023-06-22T01:48:03;14.63;;;11.43;;
76433;SDS011;65265;53.200;6.080;2023-06-22T01:52:55;16.55;;;12.75;;
76433;SDS011;65265;53.200;6.080;2023-06-22T01:57:46;13.05;;;10.70;;
76433;SDS011;65265;53.200;6.080;2023-06-22T02:02:39;15.35;;;12.05;;
76433;SDS011;65265;53.200;6.080;2023-06-22T02:07:44;20.23;;;15.75;;
76433;SDS011;65265;53.200;6.080;2023-06-22T02:12:37;19.63;;;15.73;;
76433;SDS011;65265;53.200;6.080;2023-06-22T02:17:30;15.40;;;12.55;;
76433;SDS011;65265;53.200;6.080;2023-06-22T02:22:23;19.52;;;13.77;;
76433;SDS011;65265;53.200;6.080;2023-06-22T02:27:16;18.85;;;14.23;;
76433;SDS011;65265;53.200;6.080;2023-06-22T02:32:08;22.42;;;18.13;;
76433;SDS011;65265;53.200;6.080;2023-06-22T02:37:00;19.92;;;15.00;;
76433;SDS011;65265;53.200;6.080;2023-06-22T02:41:53;15.85;;;13.30;;
76433;SDS011;65265;53.200;6.080;2023-06-22T02:46:46;15.23;;;12.40;;
76433;SDS011;65265;53.200;6.080;2023-06-22T02:51:39;15.35;;;12.18;;
76433;SDS011;65265;53.200;6.080;2023-06-22T02:56:33;12.75;;;11.20;;
76433;SDS011;65265;53.200;6.080;2023-06-22T03:01:26;12.20;;;10.55;;
76433;SDS011;65265;53.200;6.080;2023-06-22T03:06:21;16.73;;;14.13;;
76433;SDS011;65265;53.200;6.080;2023-06-22T03:11:13;13.85;;;11.23;;
76433;SDS011;65265;53.200;6.080;2023-06-22T03:16:05;16.15;;;13.35;;
76433;SDS011;65265;53.200;6.080;2023-06-22T03:20:56;14.07;;;12.30;;
76433;SDS011;65265;53.200;6.080;2023-06-22T03:25:50;10.02;;;7.95;;
76433;SDS011;65265;53.200;6.080;2023-06-22T03:30:41;8.63;;;7.70;;
76433;SDS011;65265;53.200;6.080;2023-06-22T03:35:32;10.45;;;8.65;;
76433;SDS011;65265;53.200;6.080;2023-06-22T03:40:24;7.95;;;7.18;;
76433;SDS011;65265;53.200;6.080;2023-06-22T03:45:17;8.98;;;7.45;;
76433;SDS011;65265;53.200;6.080;2023-06-22T03:50:09;5.90;;;4.95;;
76433;SDS011;65265;53.200;6.080;2023-06-22T03:55:00;10.80;;;9.32;;
76433;SDS011;65265;53.200;6.080;2023-06-22T03:59:54;12.00;;;9.23;;
76433;SDS011;65265;53.200;6.080;2023-06-22T04:04:49;13.48;;;10.57;;
76433;SDS011;65265;53.200;6.080;2023-06-22T04:09:40;15.30;;;12.45;;
76433;SDS011;65265;53.200;6.080;2023-06-22T04:14:32;14.38;;;11.40;;
76433;SDS011;65265;53.200;6.080;2023-06-22T04:19:23;17.77;;;15.05;;
76433;SDS011;65265;53.200;6.080;2023-06-22T04:24:16;18.98;;;15.20;;
76433;SDS011;65265;53.200;6.080;2023-06-22T04:29:08;17.88;;;13.93;;
76433;SDS011;65265;53.200;6.080;2023-06-22T04:33:59;21.00;;;15.20;;
76433;SDS011;65265;53.200;6.080;2023-06-22T04:38:56;22.80;;;17.17;;
76433;SDS011;65265;53.200;6.080;2023-06-22T04:43:49;17.63;;;12.90;;
76433;SDS011;65265;53.200;6.080;2023-06-22T04:48:43;21.35;;;15.50;;
76433;SDS011;65265;53.200;6.080;2023-06-22T04:53:35;22.00;;;15.10;;
76433;SDS011;65265;53.200;6.080;2023-06-22T04:58:26;25.23;;;18.45;;
76433;SDS011;65265;53.200;6.080;2023-06-22T05:03:20;26.90;;;19.00;;
76433;SDS011;65265;53.200;6.080;2023-06-22T05:08:11;30.80;;;21.20;;
76433;SDS011;65265;53.200;6.080;2023-06-22T05:13:03;26.90;;;18.85;;
76433;SDS011;65265;53.200;6.080;2023-06-22T05:17:54;24.55;;;17.98;;
76433;SDS011;65265;53.200;6.080;2023-06-22T05:22:47;28.15;;;20.75;;
76433;SDS011;65265;53.200;6.080;2023-06-22T05:27:39;26.65;;;18.30;;
76433;SDS011;65265;53.200;6.080;2023-06-22T05:32:30;31.42;;;22.00;;
76433;SDS011;65265;53.200;6.080;2023-06-22T05:37:22;26.98;;;17.45;;
76433;SDS011;65265;53.200;6.080;2023-06-22T05:42:14;26.77;;;17.98;;
76433;SDS011;65265;53.200;6.080;2023-06-22T05:47:06;25.05;;;16.83;;
76433;SDS011;65265;53.200;6.080;2023-06-22T05:51:58;24.20;;;16.50;;
76433;SDS011;65265;53.200;6.080;2023-06-22T05:56:49;28.45;;;18.38;;
76433;SDS011;65265;53.200;6.080;2023-06-22T06:01:43;23.67;;;17.50;;
76433;SDS011;65265;53.200;6.080;2023-06-22T06:06:34;24.75;;;17.42;;
76433;SDS011;65265;53.200;6.080;2023-06-22T06:11:27;36.97;;;25.65;;
76433;SDS011;65265;53.200;6.080;2023-06-22T06:16:18;25.17;;;17.85;;
76433;SDS011;65265;53.200;6.080;2023-06-22T06:21:11;34.22;;;24.20;;
76433;SDS011;65265;53.200;6.080;2023-06-22T06:26:02;37.45;;;29.55;;
76433;SDS011;65265;53.200;6.080;2023-06-22T06:30:57;32.92;;;24.42;;
76433;SDS011;65265;53.200;6.080;2023-06-22T06:35:49;33.72;;;25.05;;
76433;SDS011;65265;53.200;6.080;2023-06-22T06:40:42;39.28;;;27.05;;
76433;SDS011;65265;53.200;6.080;2023-06-22T06:45:35;32.47;;;22.90;;
76433;SDS011;65265;53.200;6.080;2023-06-22T06:50:26;30.23;;;22.33;;
76433;SDS011;65265;53.200;6.080;2023-06-22T06:55:18;38.33;;;27.90;;
76433;SDS011;65265;53.200;6.080;2023-06-22T07:00:12;37.50;;;27.92;;
76433;SDS011;65265;53.200;6.080;2023-06-22T07:05:05;34.78;;;26.25;;
76433;SDS011;65265;53.200;6.080;2023-06-22T07:09:57;40.25;;;27.20;;
76433;SDS011;65265;53.200;6.080;2023-06-22T07:14:48;37.72;;;26.60;;
76433;SDS011;65265;53.200;6.080;2023-06-22T07:19:42;36.63;;;24.42;;
76433;SDS011;65265;53.200;6.080;2023-06-22T07:24:34;29.13;;;20.83;;
76433;SDS011;65265;53.200;6.080;2023-06-22T07:29:25;29.02;;;19.60;;
76433;SDS011;65265;53.200;6.080;2023-06-22T07:34:17;20.67;;;16.10;;
76433;SDS011;65265;53.200;6.080;2023-06-22T07:39:11;21.02;;;16.63;;
76433;SDS011;65265;53.200;6.080;2023-06-22T07:44:02;20.63;;;14.90;;
76433;SDS011;65265;53.200;6.080;2023-06-22T07:48:54;17.75;;;13.23;;
76433;SDS011;65265;53.200;6.080;2023-06-22T07:53:45;22.20;;;14.88;;
76433;SDS011;65265;53.200;6.080;2023-06-22T07:58:38;21.17;;;15.93;;
76433;SDS011;65265;53.200;6.080;2023-06-22T08:03:30;19.77;;;15.65;;
76433;SDS011;65265;53.200;6.080;2023-06-22T08:08:22;19.83;;;14.35;;
76433;SDS011;65265;53.200;6.080;2023-06-22T08:13:13;22.90;;;15.70;;
76433;SDS011;65265;53.200;6.080;2023-06-22T08:18:06;22.95;;;15.95;;
76433;SDS011;65265;53.200;6.080;2023-06-22T08:22:57;23.70;;;16.92;;
76433;SDS011;65265;53.200;6.080;2023-06-22T08:27:55;20.08;;;15.23;;
76433;SDS011;65265;53.200;6.080;2023-06-22T08:32:46;21.17;;;15.30;;
76433;SDS011;65265;53.200;6.080;2023-06-22T08:42:31;19.23;;;13.85;;
76433;SDS011;65265;53.200;6.080;2023-06-22T08:47:23;20.88;;;13.73;;
76433;SDS011;65265;53.200;6.080;2023-06-22T08:52:14;19.10;;;13.30;;
76433;SDS011;65265;53.200;6.080;2023-06-22T08:57:07;18.33;;;13.23;;
76433;SDS011;65265;53.200;6.080;2023-06-22T09:01:58;14.80;;;10.40;;
76433;SDS011;65265;53.200;6.080;2023-06-22T09:06:50;22.25;;;14.13;;
76433;SDS011;65265;53.200;6.080;2023-06-22T09:11:42;21.85;;;12.70;;
76433;SDS011;65265;53.200;6.080;2023-06-22T09:16:35;17.83;;;11.20;;
76433;SDS011;65265;53.200;6.080;2023-06-22T09:21:26;13.43;;;8.75;;
76433;SDS011;65265;53.200;6.080;2023-06-22T09:31:09;8.40;;;4.75;;
76433;SDS011;65265;53.200;6.080;2023-06-22T09:36:02;11.85;;;8.27;;
76433;SDS011;65265;53.200;6.080;2023-06-22T09:40:55;12.75;;;10.63;;
76433;SDS011;65265;53.200;6.080;2023-06-22T09:45:46;12.75;;;7.75;;
76433;SDS011;65265;53.200;6.080;2023-06-22T09:50:38;10.80;;;8.85;;
76433;SDS011;65265;53.200;6.080;2023-06-22T09:55:30;13.75;;;9.85;;
76433;SDS011;65265;53.200;6.080;2023-06-22T10:00:22;11.50;;;7.95;;
76433;SDS011;65265;53.200;6.080;2023-06-22T10:05:13;13.95;;;7.55;;
76433;SDS011;65265;53.200;6.080;2023-06-22T10:10:05;9.50;;;6.68;;
76433;SDS011;65265;53.200;6.080;2023-06-22T10:14:59;8.38;;;5.70;;
76433;SDS011;65265;53.200;6.080;2023-06-22T10:19:50;9.20;;;5.38;;
76433;SDS011;65265;53.200;6.080;2023-06-22T10:24:42;8.10;;;5.60;;
76433;SDS011;65265;53.200;6.080;2023-06-22T10:29:34;7.53;;;5.25;;
76433;SDS011;65265;53.200;6.080;2023-06-22T10:34:27;8.88;;;5.32;;
76433;SDS011;65265;53.200;6.080;2023-06-22T10:39:19;7.15;;;4.70;;
76433;SDS011;65265;53.200;6.080;2023-06-22T10:44:11;5.65;;;3.40;;
76433;SDS011;65265;53.200;6.080;2023-06-22T10:49:03;7.68;;;3.95;;
76433;SDS011;65265;53.200;6.080;2023-06-22T10:53:56;7.38;;;4.45;;
76433;SDS011;65265;53.200;6.080;2023-06-22T10:58:47;6.95;;;3.25;;
76433;SDS011;65265;53.200;6.080;2023-06-22T11:03:39;7.68;;;3.70;;
76433;SDS011;65265;53.200;6.080;2023-06-22T11:08:30;5.95;;;3.90;;
76433;SDS011;65265;53.200;6.080;2023-06-22T11:13:23;5.10;;;3.25;;
76433;SDS011;65265;53.200;6.080;2023-06-22T11:18:15;8.30;;;4.30;;
76433;SDS011;65265;53.200;6.080;2023-06-22T11:23:06;6.32;;;4.18;;
76433;SDS011;65265;53.200;6.080;2023-06-22T11:27:58;8.02;;;4.78;;
76433;SDS011;65265;53.200;6.080;2023-06-22T11:32:51;6.50;;;3.83;;
76433;SDS011;65265;53.200;6.080;2023-06-22T11:37:42;6.38;;;4.43;;
76433;SDS011;65265;53.200;6.080;2023-06-22T11:42:33;6.75;;;3.85;;
76433;SDS011;65265;53.200;6.080;2023-06-22T11:47:25;6.50;;;4.40;;
76433;SDS011;65265;53.200;6.080;2023-06-22T11:52:18;5.60;;;2.45;;
76433;SDS011;65265;53.200;6.080;2023-06-22T11:57:10;5.55;;;2.78;;
76433;SDS011;65265;53.200;6.080;2023-06-22T12:02:01;7.55;;;2.50;;
76433;SDS011;65265;53.200;6.080;2023-06-22T12:06:54;2.45;;;1.58;;
76433;SDS011;65265;53.200;6.080;2023-06-22T12:11:47;4.13;;;1.67;;
76433;SDS011;65265;53.200;6.080;2023-06-22T12:16:38;7.38;;;2.28;;
76433;SDS011;65265;53.200;6.080;2023-06-22T12:21:30;5.82;;;2.90;;
76433;SDS011;65265;53.200;6.080;2023-06-22T12:26:21;5.70;;;2.40;;
76433;SDS011;65265;53.200;6.080;2023-06-22T12:31:14;4.20;;;2.20;;
76433;SDS011;65265;53.200;6.080;2023-06-22T12:36:06;5.53;;;1.40;;
76433;SDS011;65265;53.200;6.080;2023-06-22T12:40:58;8.30;;;2.38;;
76433;SDS011;65265;53.200;6.080;2023-06-22T12:45:49;4.07;;;2.28;;
76433;SDS011;65265;53.200;6.080;2023-06-22T12:50:42;6.35;;;2.38;;
76433;SDS011;65265;53.200;6.080;2023-06-22T12:55:34;4.90;;;2.05;;
76433;SDS011;65265;53.200;6.080;2023-06-22T13:00:25;3.40;;;1.65;;
76433;SDS011;65265;53.200;6.080;2023-06-22T13:10:10;3.30;;;1.63;;
76433;SDS011;65265;53.200;6.080;2023-06-22T13:15:01;4.50;;;1.83;;
76433;SDS011;65265;53.200;6.080;2023-06-22T13:19:53;2.67;;;1.10;;
76433;SDS011;65265;53.200;6.080;2023-06-22T13:24:45;2.28;;;0.85;;
76433;SDS011;65265;53.200;6.080;2023-06-22T13:29:38;4.97;;;0.90;;
76433;SDS011;65265;53.200;6.080;2023-06-22T13:34:29;4.13;;;0.63;;
76433;SDS011;65265;53.200;6.080;2023-06-22T13:44:12;5.43;;;0.52;;
76433;SDS011;65265;53.200;6.080;2023-06-22T13:53:57;3.33;;;0.52;;
76433;SDS011;65265;53.200;6.080;2023-06-22T14:03:40;2.05;;;0.57;;
76433;SDS011;65265;53.200;6.080;2023-06-22T14:08:32;1.20;;;0.30;;
76433;SDS011;65265;53.200;6.080;2023-06-22T14:13:24;4.15;;;1.08;;
76433;SDS011;65265;53.200;6.080;2023-06-22T14:18:15;2.72;;;0.70;;
76433;SDS011;65265;53.200;6.080;2023-06-22T14:23:07;2.97;;;0.82;;
76433;SDS011;65265;53.200;6.080;2023-06-22T14:28:00;2.10;;;0.60;;
76433;SDS011;65265;53.200;6.080;2023-06-22T14:32:52;3.20;;;0.47;;
76433;SDS011;65265;53.200;6.080;2023-06-22T14:37:43;1.60;;;0.82;;
76433;SDS011;65265;53.200;6.080;2023-06-22T14:47:27;4.82;;;0.60;;
76433;SDS011;65265;53.200;6.080;2023-06-22T14:52:19;3.10;;;0.30;;
76433;SDS011;65265;53.200;6.080;2023-06-22T14:57:11;2.85;;;0.30;;
76433;SDS011;65265;53.200;6.080;2023-06-22T15:02:02;2.15;;;0.60;;
76433;SDS011;65265;53.200;6.080;2023-06-22T15:06:56;1.48;;;0.30;;
76433;SDS011;65265;53.200;6.080;2023-06-22T15:11:47;1.85;;;0.52;;
76433;SDS011;65265;53.200;6.080;2023-06-22T15:16:39;1.10;;;0.35;;
76433;SDS011;65265;53.200;6.080;2023-06-22T15:21:31;2.17;;;0.20;;
76433;SDS011;65265;53.200;6.080;2023-06-22T15:26:24;1.58;;;0.43;;
76433;SDS011;65265;53.200;6.080;2023-06-22T15:31:16;2.72;;;0.22;;
76433;SDS011;65265;53.200;6.080;2023-06-22T15:36:07;1.25;;;0.40;;
76433;SDS011;65265;53.200;6.080;2023-06-22T15:40:59;1.13;;;0.13;;
76433;SDS011;65265;53.200;6.080;2023-06-22T15:45:53;1.88;;;0.47;;
76433;SDS011;65265;53.200;6.080;2023-06-22T15:50:44;2.78;;;0.22;;
76433;SDS011;65265;53.200;6.080;2023-06-22T15:55:36;2.05;;;0.55;;
76433;SDS011;65265;53.200;6.080;2023-06-22T16:00:27;2.72;;;0.28;;
76433;SDS011;65265;53.200;6.080;2023-06-22T16:10:12;5.60;;;0.77;;
76433;SDS011;65265;53.200;6.080;2023-06-22T16:15:05;1.38;;;0.15;;
76433;SDS011;65265;53.200;6.080;2023-06-22T16:19:57;4.15;;;0.57;;
76433;SDS011;65265;53.200;6.080;2023-06-22T16:24:51;1.95;;;0.50;;
76433;SDS011;65265;53.200;6.080;2023-06-22T16:29:43;4.10;;;0.95;;
76433;SDS011;65265;53.200;6.080;2023-06-22T16:34:34;2.40;;;1.17;;
76433;SDS011;65265;53.200;6.080;2023-06-22T16:39:26;5.70;;;1.10;;
76433;SDS011;65265;53.200;6.080;2023-06-22T16:49:11;3.50;;;1.58;;
76433;SDS011;65265;53.200;6.080;2023-06-22T16:54:02;2.60;;;1.27;;
76433;SDS011;65265;53.200;6.080;2023-06-22T16:58:55;3.92;;;1.65;;
76433;SDS011;65265;53.200;6.080;2023-06-22T17:03:51;3.28;;;1.48;;
76433;SDS011;65265;53.200;6.080;2023-06-22T17:08:48;5.88;;;1.60;;
76433;SDS011;65265;53.200;6.080;2023-06-22T17:13:40;4.13;;;1.70;;
76433;SDS011;65265;53.200;6.080;2023-06-22T17:18:31;2.92;;;1.23;;
76433;SDS011;65265;53.200;6.080;2023-06-22T17:23:26;4.60;;;1.67;;
76433;SDS011;65265;53.200;6.080;2023-06-22T17:28:18;3.88;;;1.65;;
76433;SDS011;65265;53.200;6.080;2023-06-22T17:33:14;4.78;;;2.10;;
76433;SDS011;65265;53.200;6.080;2023-06-22T17:38:09;5.80;;;2.28;;
76433;SDS011;65265;53.200;6.080;2023-06-22T17:43:09;3.00;;;1.83;;
76433;SDS011;65265;53.200;6.080;2023-06-22T17:48:01;3.97;;;2.13;;
76433;SDS011;65265;53.200;6.080;2023-06-22T17:52:53;5.95;;;1.65;;
76433;SDS011;65265;53.200;6.080;2023-06-22T17:57:45;5.00;;;1.98;;
76433;SDS011;65265;53.200;6.080;2023-06-22T18:02:42;5.38;;;1.95;;
76433;SDS011;65265;53.200;6.080;2023-06-22T18:07:34;3.95;;;1.58;;
76433;SDS011;65265;53.200;6.080;2023-06-22T18:12:26;4.97;;;1.85;;
76433;SDS011;65265;53.200;6.080;2023-06-22T18:17:19;9.05;;;1.63;;
76433;SDS011;65265;53.200;6.080;2023-06-22T18:22:13;2.88;;;1.42;;
76433;SDS011;65265;53.200;6.080;2023-06-22T18:27:05;3.63;;;1.30;;
76433;SDS011;65265;53.200;6.080;2023-06-22T18:31:57;3.08;;;1.65;;
76433;SDS011;65265;53.200;6.080;2023-06-22T18:36:49;2.95;;;1.67;;
76433;SDS011;65265;53.200;6.080;2023-06-22T18:41:48;3.97;;;1.38;;
76433;SDS011;65265;53.200;6.080;2023-06-22T18:46:42;3.97;;;1.38;;
76433;SDS011;65265;53.200;6.080;2023-06-22T18:51:47;3.63;;;2.03;;
76433;SDS011;65265;53.200;6.080;2023-06-22T18:56:52;5.38;;;2.33;;
76433;SDS011;65265;53.200;6.080;2023-06-22T19:01:44;5.95;;;2.03;;
76433;SDS011;65265;53.200;6.080;2023-06-22T19:06:54;5.55;;;2.72;;
76433;SDS011;65265;53.200;6.080;2023-06-22T19:11:46;6.03;;;2.55;;
76433;SDS011;65265;53.200;6.080;2023-06-22T19:16:40;5.40;;;2.55;;
76433;SDS011;65265;53.200;6.080;2023-06-22T19:21:31;4.32;;;2.10;;
76433;SDS011;65265;53.200;6.080;2023-06-22T19:26:23;5.35;;;2.20;;
76433;SDS011;65265;53.200;6.080;2023-06-22T19:31:15;4.65;;;1.80;;
76433;SDS011;65265;53.200;6.080;2023-06-22T19:36:09;3.67;;;1.48;;
76433;SDS011;65265;53.200;6.080;2023-06-22T19:41:00;5.32;;;2.55;;
76433;SDS011;65265;53.200;6.080;2023-06-22T19:45:52;4.97;;;2.25;;
76433;SDS011;65265;53.200;6.080;2023-06-22T19:50:44;4.95;;;2.40;;
76433;SDS011;65265;53.200;6.080;2023-06-22T19:55:37;4.28;;;1.60;;
76433;SDS011;65265;53.200;6.080;2023-06-22T20:00:31;3.33;;;1.58;;
76433;SDS011;65265;53.200;6.080;2023-06-22T20:05:24;5.30;;;1.98;;
76433;SDS011;65265;53.200;6.080;2023-06-22T20:10:17;4.00;;;2.00;;
76433;SDS011;65265;53.200;6.080;2023-06-22T20:20:21;3.85;;;2.38;;
76433;SDS011;65265;53.200;6.080;2023-06-22T20:25:17;6.55;;;2.38;;
76433;SDS011;65265;53.200;6.080;2023-06-22T20:30:14;4.03;;;2.20;;
76433;SDS011;65265;53.200;6.080;2023-06-22T20:35:08;4.95;;;2.00;;
76433;SDS011;65265;53.200;6.080;2023-06-22T20:40:00;5.95;;;1.88;;
76433;SDS011;65265;53.200;6.080;2023-06-22T20:44:54;3.22;;;1.45;;
76433;SDS011;65265;53.200;6.080;2023-06-22T20:49:46;5.13;;;1.67;;
76433;SDS011;65265;53.200;6.080;2023-06-22T20:54:40;6.30;;;1.83;;
76433;SDS011;65265;53.200;6.080;2023-06-22T20:59:31;4.32;;;2.30;;
76433;SDS011;65265;53.200;6.080;2023-06-22T21:04:23;3.53;;;1.52;;
76433;SDS011;65265;53.200;6.080;2023-06-22T21:09:14;3.33;;;1.77;;
76433;SDS011;65265;53.200;6.080;2023-06-22T21:14:07;4.90;;;1.60;;
76433;SDS011;65265;53.200;6.080;2023-06-22T21:18:59;4.25;;;1.67;;
76433;SDS011;65265;53.200;6.080;2023-06-22T21:23:50;2.45;;;1.48;;
76433;SDS011;65265;53.200;6.080;2023-06-22T21:28:42;4.50;;;1.50;;
76433;SDS011;65265;53.200;6.080;2023-06-22T21:33:35;2.92;;;0.95;;
76433;SDS011;65265;53.200;6.080;2023-06-22T21:38:26;3.67;;;1.45;;
76433;SDS011;65265;53.200;6.080;2023-06-22T21:43:18;4.15;;;2.33;;
76433;SDS011;65265;53.200;6.080;2023-06-22T21:48:09;2.30;;;1.30;;
76433;SDS011;65265;53.200;6.080;2023-06-22T21:53:02;4.15;;;2.47;;
76433;SDS011;65265;53.200;6.080;2023-06-22T21:57:53;4.10;;;2.30;;
76433;SDS011;65265;53.200;6.080;2023-06-22T22:02:45;5.93;;;3.05;;
76433;SDS011;65265;53.200;6.080;2023-06-22T22:07:36;6.40;;;3.63;;
76433;SDS011;65265;53.200;6.080;2023-06-22T22:12:29;6.47;;;2.97;;
76433;SDS011;65265;53.200;6.080;2023-06-22T22:17:20;3.78;;;2.08;;
76433;SDS011;65265;53.200;6.080;2023-06-22T22:22:12;5.50;;;3.00;;
76433;SDS011;65265;53.200;6.080;2023-06-22T22:27:04;7.70;;;4.00;;
76433;SDS011;65265;53.200;6.080;2023-06-22T22:31:57;7.20;;;3.80;;
76433;SDS011;65265;53.200;6.080;2023-06-22T22:36:48;4.28;;;3.45;;
76433;SDS011;65265;53.200;6.080;2023-06-22T22:41:41;6.60;;;3.92;;
76433;SDS011;65265;53.200;6.080;2023-06-22T22:46:32;6.85;;;4.63;;
76433;SDS011;65265;53.200;6.080;2023-06-22T22:51:25;7.88;;;4.10;;
76433;SDS011;65265;53.200;6.080;2023-06-22T22:56:17;8.20;;;5.50;;
76433;SDS011;65265;53.200;6.080;2023-06-22T23:01:08;8.73;;;4.13;;
76433;SDS011;65265;53.200;6.080;2023-06-22T23:06:00;6.97;;;5.07;;
76433;SDS011;65265;53.200;6.080;2023-06-22T23:10:53;8.88;;;5.45;;
76433;SDS011;65265;53.200;6.080;2023-06-22T23:15:45;8.90;;;5.70;;
76433;SDS011;65265;53.200;6.080;2023-06-22T23:20:36;7.43;;;4.75;;
76433;SDS011;65265;53.200;6.080;2023-06-22T23:25:28;9.20;;;6.65;;
76433;SDS011;65265;53.200;6.080;2023-06-22T23:30:22;10.65;;;6.75;;
76433;SDS011;65265;53.200;6.080;2023-06-22T23:35:16;10.60;;;7.47;;
76433;SDS011;65265;53.200;6.080;2023-06-22T23:40:07;9.93;;;7.25;;
76433;SDS011;65265;53.200;6.080;2023-06-22T23:45:06;12.30;;;8.75;;
76433;SDS011;65265;53.200;6.080;2023-06-22T23:50:00;11.90;;;8.70;;
76433;SDS011;65265;53.200;6.080;2023-06-22T23:54:52;15.35;;;9.48;;
76433;SDS011;65265;53.200;6.080;2023-06-22T23:59:44;12.95;;;8.65;;
